Time;durP1;ratioP1;P1;durP2;ratioP2;P2;SDS_P1;SDS_P2;PMS_P1;PMS_P2;Temp;Humidity;BMP_temperature;BMP_pressure;BME280_temperature;BME280_humidity;BME280_pressure;Samples;Min_cycle;Max_cycle;Signal;HPM_P1;HPM_P2
2023/12/02 00:00:12;;;;;;;27.33;12.10;;;;;;;-3.02;98.20;101010.34;6213922;23;20012;-84
2023/12/02 00:02:43;;;;;;;26.13;11.80;;;;;;;-3.06;97.72;100988.19;6216113;23;20005;-84
2023/12/02 00:05:09;;;;;;;25.23;11.27;;;;;;;-3.02;97.71;100999.34;6215345;23;20000;-85
2023/12/02 00:07:34;;;;;;;24.25;10.30;;;;;;;-3.00;98.15;100990.97;6214521;23;20011;-84
2023/12/02 00:09:59;;;;;;;22.63;9.27;;;;;;;-2.98;98.38;100988.50;6214165;23;20115;-84
2023/12/02 00:12:25;;;;;;;23.58;9.82;;;;;;;-2.93;97.85;100981.94;6215758;23;20005;-84
2023/12/02 00:14:50;;;;;;;21.92;9.60;;;;;;;-2.91;98.03;100985.44;6215011;23;20414;-85
2023/12/02 00:17:16;;;;;;;27.00;12.15;;;;;;;-3.00;97.17;100995.19;6215367;23;20005;-84
2023/12/02 00:19:42;;;;;;;26.35;11.73;;;;;;;-3.04;96.59;100995.88;6215851;23;20012;-84
2023/12/02 00:22:07;;;;;;;25.33;10.77;;;;;;;-2.97;97.93;101002.94;6213866;23;20001;-84
2023/12/02 00:24:32;;;;;;;24.95;10.95;;;;;;;-2.98;96.42;100996.13;6215773;23;20067;-84
2023/12/02 00:26:58;;;;;;;24.45;10.25;;;;;;;-2.98;96.77;101003.72;6215117;23;20334;-84
2023/12/02 00:29:23;;;;;;;23.42;9.57;;;;;;;-2.98;97.02;100997.00;6214139;23;20019;-85
2023/12/02 00:31:48;;;;;;;24.48;10.00;;;;;;;-3.03;96.97;100993.38;6215064;23;20008;-85
2023/12/02 00:34:14;;;;;;;24.08;9.95;;;;;;;-3.05;96.21;100994.13;6215355;23;20059;-84
2023/12/02 00:36:39;;;;;;;24.42;9.70;;;;;;;-3.02;96.52;100991.72;6214744;23;20011;-84
2023/12/02 00:39:04;;;;;;;26.83;12.13;;;;;;;-3.04;96.22;101001.78;6215313;23;20332;-84
2023/12/02 00:41:32;;;;;;;27.27;11.25;;;;;;;-3.05;96.59;101002.63;6214897;23;20036;-84
2023/12/02 00:43:57;;;;;;;25.40;10.80;;;;;;;-3.09;96.21;100995.66;6215505;23;20337;-84
2023/12/02 00:46:23;;;;;;;25.33;11.23;;;;;;;-3.18;95.88;100993.59;6215474;23;20005;-84
2023/12/02 00:48:48;;;;;;;27.55;12.70;;;;;;;-3.19;95.26;101003.69;6214725;23;20020;-83
2023/12/02 00:51:14;;;;;;;28.83;13.13;;;;;;;-3.28;95.45;100997.44;6214814;23;20012;-83
2023/12/02 00:53:39;;;;;;;29.33;13.15;;;;;;;-3.42;96.03;100995.94;6215688;23;20005;-84
2023/12/02 00:56:05;;;;;;;29.90;13.55;;;;;;;-3.43;96.85;100995.06;6214614;23;20084;-84
2023/12/02 00:58:30;;;;;;;26.63;11.87;;;;;;;-3.42;97.21;100994.25;6215347;23;19997;-84
2023/12/02 01:00:56;;;;;;;27.38;11.57;;;;;;;-3.49;96.81;100974.50;6229925;23;20069;-84
2023/12/02 01:03:30;;;;;;;25.25;10.70;;;;;;;-3.37;96.79;100986.84;6244982;23;20047;-84
2023/12/02 01:05:55;;;;;;;26.60;11.77;;;;;;;-3.28;96.58;101007.59;6244722;23;20004;-84
2023/12/02 01:08:30;;;;;;;27.05;11.80;;;;;;;-3.30;96.97;100988.88;6244986;23;20012;-84
2023/12/02 01:10:58;;;;;;;24.92;11.38;;;;;;;-3.38;96.80;100967.38;6244172;23;20000;-84
2023/12/02 01:13:23;;;;;;;26.17;11.60;;;;;;;-3.28;96.75;100984.72;6245000;23;20079;-84
2023/12/02 01:15:55;;;;;;;28.08;12.30;;;;;;;-3.23;97.00;100978.97;6244900;23;20047;-84
2023/12/02 01:18:35;;;;;;;24.50;11.02;;;;;;;-3.20;97.04;100976.56;6244468;23;20054;-84
2023/12/02 01:21:07;;;;;;;26.15;11.23;;;;;;;-3.17;97.05;100977.56;6245147;23;19996;-84
2023/12/02 01:23:49;;;;;;;23.77;9.80;;;;;;;-3.07;97.42;100978.84;6239249;23;20012;-84
2023/12/02 01:26:26;;;;;;;22.40;9.27;;;;;;;-3.02;97.52;100973.94;6244617;23;20044;-84
2023/12/02 01:28:52;;;;;;;21.00;8.32;;;;;;;-2.92;97.56;100992.97;6245767;23;20050;-84
2023/12/02 01:31:23;;;;;;;18.52;7.25;;;;;;;-3.01;97.87;100965.53;6243834;23;20012;-84
2023/12/02 01:33:48;;;;;;;23.00;9.25;;;;;;;-2.91;96.48;100987.97;6246297;23;20019;-84
2023/12/02 01:36:14;;;;;;;23.67;9.88;;;;;;;-2.95;96.43;100981.00;6247539;23;20406;-84
2023/12/02 01:38:51;;;;;;;29.27;13.23;;;;;;;-3.19;96.26;100965.63;6246478;23;20086;-84
2023/12/02 01:41:16;;;;;;;28.70;13.13;;;;;;;-3.13;96.79;100983.63;6247337;23;20330;-84
2023/12/02 01:43:42;;;;;;;26.55;12.13;;;;;;;-3.10;97.29;100996.47;6246942;23;19992;-84
2023/12/02 01:46:07;;;;;;;26.30;11.60;;;;;;;-3.24;96.85;100982.31;6246603;23;20004;-84
2023/12/02 01:48:36;;;;;;;26.80;12.30;;;;;;;-3.06;97.30;101007.63;6246593;23;20084;-85
2023/12/02 01:51:17;;;;;;;23.55;10.15;;;;;;;-3.15;98.15;100985.22;6247168;23;20000;-84
2023/12/02 01:53:57;;;;;;;23.98;10.35;;;;;;;-3.03;97.35;101008.63;6246092;23;20054;-84
2023/12/02 01:56:35;;;;;;;26.35;11.35;;;;;;;-3.02;97.02;101006.97;6247293;23;20008;-84
2023/12/02 01:59:16;;;;;;;23.25;9.88;;;;;;;-3.13;97.29;100983.63;6246099;23;20079;-84
2023/12/02 02:02:31;;;;;;;25.45;10.52;;;;;;;-2.92;97.14;101010.75;6245455;22;20020;-84
2023/12/02 02:05:47;;;;;;;24.15;10.68;;;;;;;-2.90;97.48;101016.75;6246811;23;20042;-85
2023/12/02 02:08:12;;;;;;;22.27;9.68;;;;;;;-2.99;97.72;100996.94;6247365;23;20016;-84
2023/12/02 02:10:57;;;;;;;21.63;8.60;;;;;;;-2.80;98.15;101016.34;6246962;23;20100;-85
2023/12/02 02:13:22;;;;;;;23.48;9.52;;;;;;;-2.89;97.87;101004.16;6246346;23;20004;-85
2023/12/02 02:15:51;;;;;;;22.15;8.98;;;;;;;-2.95;98.33;100984.44;6247437;23;20000;-85
2023/12/02 02:18:16;;;;;;;20.65;8.63;;;;;;;-2.80;98.00;101008.72;6246611;23;20007;-85
2023/12/02 02:23:51;;;;;;;23.88;10.20;;;;;;;-2.86;97.65;101004.25;6215804;23;20063;-84
2023/12/02 02:26:32;;;;;;;25.08;10.52;;;;;;;-3.06;97.19;100987.31;6215517;23;20017;-84
2023/12/02 02:29:03;;;;;;;26.42;11.55;;;;;;;-2.95;97.46;101009.84;6215830;23;20084;-84
2023/12/02 02:31:31;;;;;;;27.27;11.82;;;;;;;-3.11;97.21;100987.13;6216392;23;20452;-85
2023/12/02 02:34:00;;;;;;;25.17;11.00;;;;;;;-2.92;97.55;101014.16;6215272;23;20406;-84
2023/12/02 02:36:28;;;;;;;23.60;10.40;;;;;;;-3.04;97.44;100988.25;6216888;23;20322;-84
2023/12/02 02:38:53;;;;;;;23.98;10.20;;;;;;;-3.00;97.19;101011.28;6216319;23;20518;-84
2023/12/02 02:41:19;;;;;;;23.70;9.68;;;;;;;-3.02;97.83;101010.34;6214420;23;20008;-84
2023/12/02 02:44:02;;;;;;;21.95;8.48;;;;;;;-3.12;97.71;100991.34;6216835;23;20322;-84
2023/12/02 02:46:40;;;;;;;20.73;8.13;;;;;;;-3.06;97.78;100994.94;6216023;23;20096;-84
2023/12/02 02:49:08;;;;;;;19.42;7.78;;;;;;;-2.99;98.19;101004.56;6215702;23;20004;-85
2023/12/02 02:51:33;;;;;;;20.17;7.88;;;;;;;-2.96;97.44;101012.28;6216114;23;20000;-84
2023/12/02 02:53:58;;;;;;;21.58;8.52;;;;;;;-2.87;97.54;101032.13;6216150;23;20040;-85
2023/12/02 02:56:25;;;;;;;19.25;7.00;;;;;;;-2.86;98.06;101018.63;6215028;23;20032;-84
2023/12/02 02:58:50;;;;;;;19.52;7.10;;;;;;;-2.80;97.93;101026.50;6216126;23;20008;-84
2023/12/02 03:01:15;;;;;;;17.35;6.20;;;;;;;-2.72;98.32;101040.41;6216178;23;20009;-84
2023/12/02 03:03:41;;;;;;;17.65;6.45;;;;;;;-2.73;98.09;101035.25;6215160;23;20330;-84
2023/12/02 03:06:07;;;;;;;18.48;6.72;;;;;;;-2.72;97.86;101045.50;6215156;23;20015;-84
2023/12/02 03:08:32;;;;;;;18.30;6.90;;;;;;;-2.69;97.92;101035.44;6216192;23;20000;-84
2023/12/02 03:10:57;;;;;;;16.88;5.85;;;;;;;-2.59;98.15;101040.94;6213142;23;20027;-84
2023/12/02 03:13:29;;;;;;;16.35;5.72;;;;;;;-2.67;98.58;101028.75;6216156;23;20009;-84
2023/12/02 03:16:03;;;;;;;16.35;5.88;;;;;;;-2.70;97.91;101030.31;6215719;23;20012;-84
2023/12/02 03:18:29;;;;;;;15.88;6.22;;;;;;;-2.68;98.40;101028.72;6214855;23;20009;-84
2023/12/02 03:20:54;;;;;;;17.83;6.78;;;;;;;-2.56;97.80;101043.59;6216086;23;20070;-84
2023/12/02 03:23:31;;;;;;;16.75;5.70;;;;;;;-2.71;98.27;101015.88;6215292;23;20011;-83
2023/12/02 03:25:56;;;;;;;21.25;8.88;;;;;;;-2.74;96.63;101031.84;6215271;23;20005;-83
2023/12/02 03:28:34;;;;;;;24.88;10.77;;;;;;;-2.91;95.32;101008.28;6216420;23;20012;-84
2023/12/02 03:33:28;;;;;;;23.58;9.88;;;;;;;-2.82;96.81;101040.84;6185934;23;20087;-83
2023/12/02 03:36:09;;;;;;;23.10;9.60;;;;;;;-2.97;97.80;101010.53;6185901;23;20008;-84
2023/12/02 03:38:34;;;;;;;26.08;11.60;;;;;;;-3.03;95.95;101025.53;6185215;23;20012;-83
2023/12/02 03:41:02;;;;;;;26.75;11.85;;;;;;;-2.95;96.19;101037.78;6185183;23;20040;-83
2023/12/02 03:43:38;;;;;;;27.05;12.63;;;;;;;-3.08;96.74;101032.06;6180753;23;20009;-83
2023/12/02 03:46:04;;;;;;;24.30;10.30;;;;;;;-2.98;97.75;101022.41;6184347;23;20004;-84
2023/12/02 03:48:41;;;;;;;25.88;11.27;;;;;;;-3.19;96.96;101026.53;6185993;23;20004;-84
2023/12/02 03:51:07;;;;;;;27.27;12.25;;;;;;;-3.03;96.76;101038.22;6186038;23;20015;-84
2023/12/02 03:53:34;;;;;;;28.35;13.48;;;;;;;-3.16;97.54;101073.25;6185211;23;20013;-84
2023/12/02 03:56:00;;;;;;;30.80;13.90;;;;;;;-3.16;97.82;101044.47;6185296;23;20036;-84
2023/12/02 03:58:27;;;;;;;25.90;12.05;;;;;;;-3.11;97.89;101046.41;6185384;23;20008;-83
2023/12/02 04:00:52;;;;;;;29.75;14.45;;;;;;;-3.25;98.01;101077.91;6185590;23;20088;-83
2023/12/02 04:03:18;;;;;;;28.80;13.27;;;;;;;-3.17;97.63;101053.72;6185190;23;20041;-83
2023/12/02 04:05:43;;;;;;;29.33;13.30;;;;;;;-3.24;97.92;101059.34;6184665;23;20005;-83
2023/12/02 04:08:09;;;;;;;27.27;13.07;;;;;;;-3.19;98.25;101062.94;6185110;23;20001;-84
2023/12/02 04:10:34;;;;;;;27.55;11.77;;;;;;;-3.18;98.56;101059.59;6185672;23;20076;-84
2023/12/02 04:13:05;;;;;;;26.30;11.57;;;;;;;-3.13;98.24;101072.50;6183836;23;20056;-84
2023/12/02 04:15:30;;;;;;;24.90;10.60;;;;;;;-3.11;98.82;101073.44;6186154;23;20001;-84
2023/12/02 04:17:59;;;;;;;23.65;10.43;;;;;;;-3.12;98.61;101076.78;6185616;23;20051;-84
2023/12/02 04:20:24;;;;;;;25.83;11.63;;;;;;;-3.11;98.51;101079.41;6184521;23;20482;-84
2023/12/02 04:22:49;;;;;;;24.75;10.15;;;;;;;-3.08;99.26;101093.91;6183595;23;20049;-84
2023/12/02 04:25:14;;;;;;;26.30;12.15;;;;;;;-3.16;98.67;101083.41;6185281;23;20016;-84
2023/12/02 04:27:43;;;;;;;25.15;10.68;;;;;;;-3.08;98.71;101086.28;6184231;23;20067;-84
2023/12/02 04:30:08;;;;;;;22.52;9.85;;;;;;;-3.03;98.74;101094.97;6185202;23;20014;-84
2023/12/02 04:32:34;;;;;;;22.67;9.88;;;;;;;-2.99;98.98;101090.91;6185037;23;20013;-84
2023/12/02 04:35:05;;;;;;;21.33;8.57;;;;;;;-2.92;98.93;101095.44;6184132;23;20009;-84
2023/12/02 04:37:30;;;;;;;21.48;7.90;;;;;;;-2.98;98.67;101072.31;6185373;23;20493;-83
2023/12/02 04:39:56;;;;;;;19.88;7.55;;;;;;;-2.82;98.94;101089.97;6185386;23;20005;-83
2023/12/02 04:42:21;;;;;;;20.40;8.32;;;;;;;-2.81;98.69;101095.88;6184619;23;20337;-84
2023/12/02 04:44:46;;;;;;;19.83;7.15;;;;;;;-2.84;98.32;101090.69;6185485;23;20005;-83
2023/12/02 04:47:11;;;;;;;18.10;7.00;;;;;;;-2.85;98.37;101083.88;6185140;23;20024;-84
2023/12/02 04:49:37;;;;;;;17.00;6.13;;;;;;;-2.78;98.60;101083.34;6184408;23;20040;-84
2023/12/02 04:52:03;;;;;;;18.85;6.88;;;;;;;-2.77;98.78;101080.00;6183196;23;20005;-84
2023/12/02 04:54:29;;;;;;;16.63;5.80;;;;;;;-2.73;98.35;101094.56;6185575;23;20012;-84
2023/12/02 04:56:54;;;;;;;16.60;6.13;;;;;;;-2.69;99.03;101096.44;6183954;23;20008;-84
2023/12/02 04:59:19;;;;;;;16.30;5.88;;;;;;;-2.65;98.71;101103.38;6185081;23;20055;-84
2023/12/02 05:01:44;;;;;;;16.17;6.15;;;;;;;-2.64;98.14;101099.16;6183244;23;20366;-84
2023/12/02 05:04:10;;;;;;;16.90;6.55;;;;;;;-2.70;98.11;101098.91;6185097;23;20016;-84
2023/12/02 05:06:35;;;;;;;14.98;5.63;;;;;;;-2.62;98.95;101109.41;6185626;23;20032;-84
2023/12/02 05:09:00;;;;;;;16.73;5.82;;;;;;;-2.63;97.33;101103.44;6184636;23;20411;-84
2023/12/02 05:11:26;;;;;;;17.08;5.93;;;;;;;-2.69;97.71;101093.88;6187529;23;20008;-84
2023/12/02 05:13:54;;;;;;;18.10;6.60;;;;;;;-2.61;98.47;101112.00;6187494;23;20013;-84
2023/12/02 05:16:19;;;;;;;18.40;6.57;;;;;;;-2.67;98.26;101104.13;6186335;23;20044;-84
2023/12/02 05:18:45;;;;;;;19.40;7.40;;;;;;;-2.64;97.62;101119.50;6187745;23;20072;-83
2023/12/02 05:21:10;;;;;;;18.73;6.82;;;;;;;-2.67;98.28;101109.22;6187084;23;20011;-84
2023/12/02 05:23:36;;;;;;;17.75;6.35;;;;;;;-2.58;98.45;101126.50;6185890;23;20001;-84
2023/12/02 05:26:01;;;;;;;17.67;6.50;;;;;;;-2.59;98.81;101117.19;6186553;23;20005;-84
2023/12/02 05:28:30;;;;;;;16.55;6.05;;;;;;;-2.60;97.95;101128.13;6187496;23;20009;-84
2023/12/02 05:30:58;;;;;;;17.23;6.32;;;;;;;-2.57;98.35;101120.63;6186210;23;20005;-84
2023/12/02 05:33:23;;;;;;;15.60;5.68;;;;;;;-2.53;98.11;101128.44;6186548;23;20009;-84
2023/12/02 05:35:52;;;;;;;15.95;6.00;;;;;;;-2.51;98.42;101119.22;6186154;23;20009;-84
2023/12/02 05:38:23;;;;;;;16.70;5.90;;;;;;;-2.67;98.56;101083.81;6185155;23;20024;-84
2023/12/02 05:40:48;;;;;;;16.13;5.78;;;;;;;-2.66;98.44;101085.53;6186762;23;20001;-84
2023/12/02 05:43:30;;;;;;;15.63;5.70;;;;;;;-2.55;98.37;101091.94;6187144;23;20012;-84
2023/12/02 05:46:15;;;;;;;16.83;6.10;;;;;;;-2.60;97.53;101105.28;6185950;23;20015;-84
2023/12/02 05:48:40;;;;;;;21.45;8.80;;;;;;;-2.80;96.89;101098.53;6212263;22;20108;-84
2023/12/02 05:51:06;;;;;;;20.67;8.25;;;;;;;-2.66;97.80;101124.50;6215536;23;20007;-84
2023/12/02 05:55:59;;;;;;;24.20;11.05;;;;;;;-2.99;97.13;101113.75;6216337;22;20027;-84
2023/12/02 05:58:49;;;;;;;25.65;11.52;;;;;;;-2.86;97.67;101145.66;6216312;23;20013;-84
2023/12/02 06:01:22;;;;;;;22.98;9.38;;;;;;;-2.86;98.19;101150.72;6216449;23;20005;-84
2023/12/02 06:04:06;;;;;;;20.95;8.70;;;;;;;-2.96;98.36;101137.63;6216713;23;20015;-84
2023/12/02 06:06:49;;;;;;;20.33;7.70;;;;;;;-2.89;98.41;101132.81;6215658;23;20326;-84
2023/12/02 06:09:15;;;;;;;18.70;7.00;;;;;;;-2.83;98.69;101138.16;6216590;23;20000;-84
2023/12/02 06:11:49;;;;;;;18.73;7.15;;;;;;;-2.82;98.70;101127.22;6216848;23;20051;-84
2023/12/02 06:14:24;;;;;;;16.77;6.35;;;;;;;-2.76;99.12;101117.31;6216116;23;20127;-84
2023/12/02 06:16:58;;;;;;;16.80;6.40;;;;;;;-2.71;99.12;101131.09;6216870;23;20004;-84
2023/12/02 06:19:23;;;;;;;17.52;6.30;;;;;;;-2.71;99.34;101130.19;6215571;23;20011;-83
2023/12/02 06:21:49;;;;;;;16.10;6.05;;;;;;;-2.66;98.77;101142.31;6216499;23;20079;-84
2023/12/02 06:24:17;;;;;;;15.82;5.80;;;;;;;-2.62;99.03;101148.38;6216626;23;20330;-84
2023/12/02 06:26:42;;;;;;;16.33;5.95;;;;;;;-2.72;99.17;101131.88;6216129;23;20071;-84
2023/12/02 06:29:07;;;;;;;15.15;5.20;;;;;;;-2.68;99.46;101132.88;6217214;23;20032;-83
2023/12/02 06:31:42;;;;;;;17.10;5.68;;;;;;;-2.51;99.16;101157.34;6217127;23;20449;-84
2023/12/02 06:34:07;;;;;;;13.85;5.18;;;;;;;-2.51;99.30;101164.97;6216320;23;20004;-83
2023/12/02 06:36:49;;;;;;;12.52;4.50;;;;;;;-2.59;98.93;101143.44;6216640;23;20011;-84
2023/12/02 06:39:15;;;;;;;12.60;4.50;;;;;;;-2.50;99.40;101158.22;6216576;23;20422;-84
2023/12/02 06:41:58;;;;;;;11.88;4.53;;;;;;;-2.62;99.50;101150.06;6215994;23;20011;-84
2023/12/02 06:44:41;;;;;;;14.48;4.97;;;;;;;-2.54;99.57;101153.81;6216292;23;20492;-84
2023/12/02 06:47:15;;;;;;;11.23;4.30;;;;;;;-2.50;99.52;101159.06;6215648;23;20004;-83
2023/12/02 06:49:59;;;;;;;12.90;4.75;;;;;;;-2.53;99.22;101158.94;6216778;23;20311;-84
2023/12/02 06:52:30;;;;;;;14.30;4.82;;;;;;;-2.43;99.47;101169.53;6216922;23;20484;-84
2023/12/02 06:55:11;;;;;;;13.00;4.53;;;;;;;-2.50;99.36;101154.00;6215573;23;20017;-84
2023/12/02 06:57:36;;;;;;;15.20;5.28;;;;;;;-2.53;99.37;101153.84;6216610;23;20005;-84
2023/12/02 07:00:21;;;;;;;13.30;4.80;;;;;;;-2.40;99.53;101179.81;6215649;23;20107;-84
2023/12/02 07:03:01;;;;;;;12.93;4.90;;;;;;;-2.44;99.50;101178.81;6214992;23;20481;-84
2023/12/02 07:06:05;;;;;;;12.48;4.57;;;;;;;-2.42;99.50;101182.28;6215857;23;20011;-84
2023/12/02 07:08:39;;;;;;;11.77;4.40;;;;;;;-2.46;99.57;101179.56;6215984;23;20106;-83
2023/12/02 07:11:17;;;;;;;11.38;4.32;;;;;;;-2.37;99.68;101192.66;6216584;23;20020;-84
2023/12/02 07:13:51;;;;;;;12.32;4.28;;;;;;;-2.46;99.46;101182.94;6216698;23;20025;-84
2023/12/02 07:16:32;;;;;;;12.43;4.50;;;;;;;-2.40;99.86;101195.06;6215436;23;20016;-84
2023/12/02 07:19:04;;;;;;;12.73;4.53;;;;;;;-2.47;99.36;101188.84;6216534;23;20001;-84
2023/12/02 07:21:44;;;;;;;12.82;4.90;;;;;;;-2.37;99.23;101200.28;6216250;23;20275;-84
2023/12/02 07:24:25;;;;;;;11.88;4.40;;;;;;;-2.26;99.63;101214.31;6215466;23;20131;-84
2023/12/02 07:30:17;;;;;;;14.10;5.43;;;;;;;-2.18;99.25;101224.84;6215527;23;20077;-84
2023/12/02 07:40:23;;;;;;;18.90;7.35;;;;;;;-2.36;99.49;101213.03;6215938;23;20025;-84
2023/12/02 07:42:49;;;;;;;17.80;6.75;;;;;;;-2.33;99.41;101219.97;6215640;23;20333;-84
2023/12/02 07:45:26;;;;;;;17.85;6.90;;;;;;;-2.42;99.36;101207.72;6214886;23;20477;-84
2023/12/02 07:47:51;;;;;;;17.27;6.05;;;;;;;-2.47;99.69;101204.09;6215855;23;20004;-84
2023/12/02 07:50:23;;;;;;;17.52;6.28;;;;;;;-2.57;99.09;101202.84;6215676;23;20010;-83
2023/12/02 07:53:10;;;;;;;16.65;6.15;;;;;;;-2.38;99.36;101246.84;6215495;23;20000;-84
2023/12/02 07:55:38;;;;;;;16.67;6.00;;;;;;;-2.49;99.43;101242.16;6215475;23;19996;-84
2023/12/02 07:58:34;;;;;;;14.70;5.25;;;;;;;-2.44;99.68;101255.06;6214934;23;20015;-83
2023/12/02 08:01:08;;;;;;;13.40;5.18;;;;;;;-2.62;99.48;101227.16;6214932;23;20087;-83
2023/12/02 08:03:56;;;;;;;15.15;5.30;;;;;;;-2.45;99.39;101255.00;6215558;23;20362;-84
2023/12/02 08:06:36;;;;;;;16.77;5.72;;;;;;;-2.59;99.77;101236.63;6212208;23;20026;-83
2023/12/02 08:09:02;;;;;;;15.20;5.40;;;;;;;-2.57;99.77;101234.97;6214822;23;20055;-80
2023/12/02 08:11:30;;;;;;;14.43;5.30;;;;;;;-2.50;99.71;101252.25;6215779;23;20005;-87
2023/12/02 08:14:08;;;;;;;16.95;5.85;;;;;;;-2.53;99.59;101252.13;6216390;23;20005;-87
2023/12/02 08:16:50;;;;;;;15.98;5.70;;;;;;;-2.47;99.50;101261.69;6215524;23;20036;-90
2023/12/02 08:19:16;;;;;;;14.63;5.57;;;;;;;-2.41;99.86;101269.56;6214892;23;20012;-82
2023/12/02 08:21:41;;;;;;;16.70;5.80;;;;;;;-2.45;99.75;101260.94;6215357;23;20016;-82
2023/12/02 08:24:07;;;;;;;14.90;5.35;;;;;;;-2.47;99.77;101260.00;6215367;23;20015;-82
2023/12/02 08:26:40;;;;;;;15.77;5.72;;;;;;;-2.50;99.65;101262.44;6214374;23;20013;-82
2023/12/02 08:29:34;;;;;;;17.40;5.85;;;;;;;-2.29;99.99;101290.47;6215078;23;20077;-82
2023/12/02 08:32:29;;;;;;;16.17;5.78;;;;;;;-2.23;99.76;101297.50;6214959;23;20414;-81
2023/12/02 08:35:06;;;;;;;15.23;5.22;;;;;;;-2.30;100.00;101276.00;6214771;23;20070;-81
2023/12/02 08:37:34;;;;;;;14.20;5.35;;;;;;;-2.22;99.87;101286.53;6202880;23;20005;-80
2023/12/02 08:40:05;;;;;;;14.70;4.80;;;;;;;-2.19;99.64;101290.06;6213734;23;20012;-81
2023/12/02 08:42:39;;;;;;;14.15;4.90;;;;;;;-2.27;99.85;101288.00;6215120;23;20005;-82
2023/12/02 08:45:12;;;;;;;13.07;4.72;;;;;;;-2.31;99.71;101283.56;6214894;23;20004;-82
2023/12/02 08:47:53;;;;;;;13.13;4.85;;;;;;;-2.33;100.00;101281.84;6214387;23;20001;-83
2023/12/02 08:50:21;;;;;;;13.07;4.45;;;;;;;-2.18;100.00;101306.22;6188686;22;20020;-83
2023/12/02 08:52:59;;;;;;;13.75;4.75;;;;;;;-2.19;99.79;101304.47;6185752;23;20005;-85
2023/12/02 08:55:27;;;;;;;12.63;4.25;;;;;;;-2.17;100.00;101301.19;6184213;23;20005;-84
2023/12/02 08:57:52;;;;;;;12.75;4.60;;;;;;;-2.21;100.00;101289.16;6184112;23;20037;-85
2023/12/02 09:00:42;;;;;;;13.73;5.07;;;;;;;-2.09;99.79;101318.47;6184957;23;20415;-85
2023/12/02 09:03:08;;;;;;;13.75;4.57;;;;;;;-2.22;100.00;101300.13;6184886;23;20009;-85
2023/12/02 09:05:36;;;;;;;13.10;4.70;;;;;;;-2.17;99.75;101311.34;6199708;22;20039;-85
2023/12/02 09:08:04;;;;;;;16.45;5.60;;;;;;;-2.23;99.44;101311.09;6211034;23;20004;-86
2023/12/02 09:11:06;;;;;;;17.42;6.25;;;;;;;-2.25;99.25;101320.31;6215665;23;20406;-85
2023/12/02 09:13:46;;;;;;;16.35;5.35;;;;;;;-2.29;99.56;101323.53;6216068;23;20326;-85
2023/12/02 09:16:46;;;;;;;16.90;6.13;;;;;;;-2.18;100.00;101326.56;6214503;23;20004;-86
2023/12/02 09:20:04;;;;;;;19.65;7.60;;;;;;;-2.12;99.79;101328.50;6168345;23;20015;-86
2023/12/02 09:22:50;;;;;;;18.98;6.93;;;;;;;-2.13;99.98;101316.59;6215319;23;20062;-86
2023/12/02 09:25:42;;;;;;;18.05;6.88;;;;;;;-2.16;99.76;101296.97;6214276;23;20115;-86
2023/12/02 09:28:07;;;;;;;18.63;6.57;;;;;;;-1.92;99.80;101330.25;6156896;23;20008;-85
2023/12/02 09:31:08;;;;;;;17.80;6.47;;;;;;;-1.79;100.00;101324.00;6214087;23;20012;-85
2023/12/02 09:33:34;;;;;;;18.23;6.53;;;;;;;-1.70;99.88;101326.06;6215418;23;20047;-85
2023/12/02 09:36:41;;;;;;;19.13;7.10;;;;;;;-1.74;99.85;101316.56;6213994;23;20036;-86
2023/12/02 09:39:21;;;;;;;18.52;6.80;;;;;;;-1.62;99.36;101341.69;6215142;23;20008;-86
2023/12/02 09:45:24;;;;;;;18.33;6.80;;;;;;;-1.58;99.49;101348.66;6214563;23;20015;-85
2023/12/02 09:48:34;;;;;;;18.25;6.65;;;;;;;-1.64;99.50;101317.84;6215604;23;20040;-86
2023/12/02 09:51:52;;;;;;;19.27;7.30;;;;;;;-1.36;99.21;101352.97;6212755;23;20020;-86
2023/12/02 09:58:02;;;;;;;18.95;7.22;;;;;;;-1.10;99.20;101342.97;6217086;23;20181;-88
2023/12/02 10:04:43;;;;;;;19.17;7.75;;;;;;;-0.89;97.99;101321.69;6216291;23;20012;-86
2023/12/02 10:14:33;;;;;;;18.38;6.80;;;;;;;-0.54;98.50;101325.59;6095634;23;20532;-86
2023/12/02 10:17:11;;;;;;;18.40;6.80;;;;;;;-0.31;97.64;101348.56;6095338;23;20018;-86
2023/12/02 10:19:59;;;;;;;17.20;6.28;;;;;;;-0.36;98.27;101325.44;6095024;23;20006;-88
2023/12/02 10:22:28;;;;;;;15.02;5.50;;;;;;;-0.24;97.59;101321.59;6096560;23;20006;-87
2023/12/02 10:28:26;;;;;;;18.67;7.05;;;;;;;-0.04;95.66;101352.94;6097619;23;20025;-89
2023/12/02 10:31:15;;;;;;;18.27;6.57;;;;;;;-0.18;95.41;101348.19;6095657;23;20034;-89
2023/12/02 10:36:26;;;;;;;19.52;7.53;;;;;;;-0.42;96.70;101329.44;6217788;23;20390;-91
2023/12/02 10:39:29;;;;;;;17.42;6.47;;;;;;;-0.23;97.15;101356.50;6218754;23;20063;-89
2023/12/02 10:42:04;;;;;;;16.15;6.18;;;;;;;-0.27;97.37;101340.22;6217643;23;20024;-90
2023/12/02 10:45:06;;;;;;;15.98;5.70;;;;;;;-0.16;97.13;101343.16;6217879;23;20004;-91
2023/12/02 10:47:35;;;;;;;16.70;6.20;;;;;;;-0.08;96.23;101351.09;6218075;23;20011;-91
2023/12/02 10:50:22;;;;;;;18.70;7.05;;;;;;;-0.17;95.68;101324.44;6217870;23;20005;-89
2023/12/02 10:53:04;;;;;;;18.25;6.90;;;;;;;-0.12;95.61;101331.41;6217977;23;20066;-79
2023/12/02 10:55:40;;;;;;;17.45;6.53;;;;;;;0.03;96.35;101344.69;6216797;23;20107;-90
2023/12/02 11:01:45;;;;;;;19.20;6.90;;;;;;;0.16;95.54;101361.34;6167870;23;20012;-89
2023/12/02 11:04:36;;;;;;;19.25;7.43;;;;;;;-0.05;95.13;101341.00;6222166;23;20009;-92
2023/12/02 11:07:07;;;;;;;19.95;7.35;;;;;;;-0.12;94.77;101337.34;6220433;23;20013;-89
2023/12/02 11:10:19;;;;;;;;;;;;;;;;;;;;;
2023/12/02 11:16:44;;;;;;;14.70;5.80;;;;;;;0.02;95.69;101363.38;6219114;22;20018;-86
2023/12/02 11:19:57;;;;;;;17.02;6.43;;;;;;;0.06;96.47;101360.13;6218039;23;20063;-89
2023/12/02 11:26:34;;;;;;;16.83;5.95;;;;;;;0.09;96.27;101350.03;6181583;23;20019;-89
2023/12/02 11:29:21;;;;;;;18.23;6.28;;;;;;;0.11;96.25;101357.72;6217359;23;20031;-86
2023/12/02 11:32:25;;;;;;;17.13;6.07;;;;;;;0.15;96.85;101365.56;6215839;23;20004;-83
2023/12/02 11:35:12;;;;;;;16.55;6.00;;;;;;;0.20;97.02;101365.72;6215893;23;20001;-86
2023/12/02 11:38:27;;;;;;;16.73;6.07;;;;;;;0.14;96.68;101340.84;6217143;22;20020;-85
2023/12/02 11:41:26;;;;;;;15.07;5.47;;;;;;;0.34;96.66;101361.09;6215580;23;20012;-82
2023/12/02 11:44:13;;;;;;;14.38;5.20;;;;;;;0.40;96.58;101365.53;6215587;23;20058;-83
2023/12/02 11:47:24;;;;;;;14.88;5.38;;;;;;;0.41;96.85;101373.28;6216118;23;20012;-86
2023/12/02 11:50:36;;;;;;;;;;;;;;;;;;;;;
2023/12/02 11:57:02;;;;;;;17.00;5.90;;;;;;;0.50;96.70;101372.72;6215803;23;20155;-85
2023/12/02 12:00:25;;;;;;;17.95;6.53;;;;;;;0.50;96.48;101369.28;6216354;23;20299;-85
2023/12/02 12:03:17;;;;;;;18.07;6.80;;;;;;;0.36;96.06;101343.28;6173997;23;20011;-85
2023/12/02 12:06:09;;;;;;;20.50;8.10;;;;;;;0.59;96.42;101372.16;6215127;23;20382;-86
2023/12/02 12:09:08;;;;;;;21.38;8.50;;;;;;;0.45;96.61;101352.13;6215317;23;20005;-81
2023/12/02 12:12:07;;;;;;;21.35;8.45;;;;;;;0.61;96.97;101376.53;6168745;23;20008;-86
2023/12/02 12:14:39;;;;;;;18.95;7.60;;;;;;;0.59;96.73;101360.28;6094207;23;20050;-88
2023/12/02 12:17:13;;;;;;;18.13;7.05;;;;;;;0.67;96.61;101373.31;6094278;23;20037;-85
2023/12/02 12:19:41;;;;;;;17.77;6.88;;;;;;;0.63;96.67;101360.34;6095106;23;20013;-87
2023/12/02 12:22:09;;;;;;;16.67;6.10;;;;;;;0.57;96.66;101356.78;6095184;23;20046;-86
2023/12/02 12:24:35;;;;;;;17.58;6.78;;;;;;;0.63;94.65;101368.00;6095349;23;20116;-85
2023/12/02 12:27:12;;;;;;;17.67;6.75;;;;;;;0.60;95.97;101379.91;6093858;23;20037;-86
2023/12/02 12:29:53;;;;;;;19.77;7.57;;;;;;;0.42;95.24;101357.13;6095004;23;20098;-86
2023/12/02 12:32:28;;;;;;;19.70;7.38;;;;;;;0.35;95.81;101350.06;6093548;23;20045;-85
2023/12/02 12:35:31;;;;;;;18.95;7.18;;;;;;;0.41;96.09;101357.06;6094760;23;20034;-86
2023/12/02 12:38:01;;;;;;;17.67;6.40;;;;;;;0.27;96.21;101344.72;6093472;23;20444;-85
2023/12/02 12:40:29;;;;;;;18.52;6.80;;;;;;;0.47;96.81;101372.63;6094417;23;20118;-86
2023/12/02 12:42:55;;;;;;;16.92;6.05;;;;;;;0.46;96.83;101361.50;6118147;23;20430;-85
2023/12/02 12:45:24;;;;;;;16.27;5.73;;;;;;;0.49;97.19;101377.78;6215292;23;20005;-85
2023/12/02 12:47:50;;;;;;;19.90;7.53;;;;;;;0.38;95.08;101372.31;6213827;23;20099;-86
2023/12/02 12:50:21;;;;;;;19.67;7.78;;;;;;;0.33;95.76;101379.81;6215115;23;20015;-85